Time;durP1;ratioP1;P1;durP2;ratioP2;P2;SDS_P1;SDS_P2;PMS_P1;PMS_P2;Temp;Humidity;BMP_temperature;BMP_pressure;BME280_temperature;BME280_humidity;BME280_pressure;Samples;Min_cycle;Max_cycle;Signal;HPM_P1;HPM_P2
2022/06/27 04:02:27;;;;;;;6.00;2.50;;;18.10;99.90;;;;;;5058226;23;21143;-61
2022/06/27 04:04:54;;;;;;;3.33;2.50;;;18.10;99.90;;;;;;4978255;28;20533;-61
2022/06/27 04:07:21;;;;;;;2.93;2.73;;;18.20;99.90;;;;;;4978255;28;20454;-61
2022/06/27 04:09:47;;;;;;;2.97;2.63;;;18.20;99.90;;;;;;4978227;28;20454;-61
2022/06/27 04:12:14;;;;;;;5.50;3.00;;;18.30;99.90;;;;;;4977690;28;20485;-61
2022/06/27 04:14:41;;;;;;;5.43;3.30;;;18.20;99.90;;;;;;4978001;28;20461;-61
2022/06/27 04:17:07;;;;;;;4.53;3.57;;;18.20;99.90;;;;;;4977966;28;20459;-61
2022/06/27 04:19:35;;;;;;;3.57;3.27;;;18.20;99.90;;;;;;4978117;28;20866;-61
2022/06/27 04:22:02;;;;;;;3.80;3.50;;;18.20;99.90;;;;;;4977603;28;20977;-61
2022/06/27 04:24:29;;;;;;;3.50;3.10;;;18.20;99.90;;;;;;4978384;28;20457;-61
2022/06/27 04:26:57;;;;;;;5.27;3.47;;;18.20;99.90;;;;;;4977833;28;20461;-61
2022/06/27 04:29:26;;;;;;;5.20;3.50;;;18.20;99.90;;;;;;4977750;28;20460;-61
2022/06/27 04:31:53;;;;;;;4.53;3.80;;;18.20;99.90;;;;;;4977649;28;20485;-61
2022/06/27 04:34:19;;;;;;;4.33;4.03;;;18.20;99.90;;;;;;4977449;28;20597;-61
2022/06/27 04:36:48;;;;;;;4.60;4.27;;;18.20;99.90;;;;;;4977633;28;20483;-61
2022/06/27 04:39:16;;;;;;;5.87;4.00;;;18.30;99.90;;;;;;4977265;28;20946;-61
2022/06/27 04:41:43;;;;;;;4.73;4.23;;;18.30;99.90;;;;;;4977405;28;20478;-61
2022/06/27 04:44:11;;;;;;;5.03;4.60;;;18.20;99.90;;;;;;4977606;28;20466;-61
2022/06/27 04:46:37;;;;;;;4.17;3.73;;;18.20;99.90;;;;;;4977569;28;20549;-64
2022/06/27 04:49:04;;;;;;;4.00;3.60;;;18.20;99.90;;;;;;4976080;28;20465;-64
2022/06/27 04:51:31;;;;;;;7.43;4.83;;;18.10;99.90;;;;;;4977374;28;20475;-64
2022/06/27 04:53:59;;;;;;;5.63;3.70;;;18.10;99.90;;;;;;4977402;28;20450;-65
2022/06/27 04:56:26;;;;;;;4.57;4.17;;;18.10;99.90;;;;;;4976926;28;20482;-65
2022/06/27 04:58:53;;;;;;;7.03;4.67;;;18.20;99.90;;;;;;4977288;28;20466;-65
2022/06/27 05:01:20;;;;;;;4.97;4.40;;;18.30;99.90;;;;;;4976757;28;20489;-64
2022/06/27 05:03:47;;;;;;;5.03;4.53;;;18.40;99.90;;;;;;4977250;28;20864;-65
2022/06/27 05:06:14;;;;;;;6.13;4.00;;;18.40;99.90;;;;;;4977050;28;20554;-65
2022/06/27 05:08:41;;;;;;;3.73;3.53;;;18.50;99.90;;;;;;4977026;28;20459;-65
2022/06/27 05:11:09;;;;;;;4.70;4.30;;;18.60;99.90;;;;;;4977016;28;20474;-65
2022/06/27 05:13:36;;;;;;;4.97;4.47;;;18.60;99.90;;;;;;4977159;28;20821;-65
2022/06/27 05:16:04;;;;;;;5.23;4.17;;;18.70;99.90;;;;;;4977038;28;20490;-65
2022/06/27 05:18:31;;;;;;;4.53;4.10;;;18.80;99.90;;;;;;4976782;28;20454;-65
2022/06/27 05:20:58;;;;;;;3.77;3.47;;;19.00;99.90;;;;;;4976729;28;20474;-64
2022/06/27 05:23:25;;;;;;;5.03;3.87;;;19.10;99.90;;;;;;4976419;28;20470;-65
2022/06/27 05:25:51;;;;;;;3.73;3.53;;;19.30;99.90;;;;;;4976596;28;20451;-65
2022/06/27 05:28:19;;;;;;;3.73;3.40;;;19.40;99.90;;;;;;4976217;28;20459;-65
2022/06/27 05:30:47;;;;;;;3.53;3.23;;;19.60;99.90;;;;;;4976550;28;20485;-64
2022/06/27 05:33:14;;;;;;;6.77;3.10;;;19.70;99.90;;;;;;4976586;28;20483;-65
2022/06/27 05:35:40;;;;;;;4.17;3.53;;;19.70;99.90;;;;;;4976626;28;20489;-63
2022/06/27 05:38:07;;;;;;;3.90;3.60;;;19.90;99.90;;;;;;4976544;28;20458;-63
2022/06/27 05:40:34;;;;;;;3.70;3.37;;;19.90;99.90;;;;;;4976420;28;20482;-63
2022/06/27 05:43:03;;;;;;;3.70;3.30;;;20.00;99.90;;;;;;4976666;28;20461;-64
2022/06/27 05:45:31;;;;;;;4.30;3.30;;;20.10;99.90;;;;;;4976775;28;20450;-65
2022/06/27 05:48:01;;;;;;;3.73;2.63;;;20.20;99.90;;;;;;4976849;28;20463;-65
2022/06/27 05:50:28;;;;;;;3.70;3.23;;;20.10;99.90;;;;;;4976540;28;20454;-65
2022/06/27 05:52:56;;;;;;;2.77;2.57;;;20.10;99.90;;;;;;4976444;28;20550;-64
2022/06/27 05:55:23;;;;;;;2.03;1.93;;;20.20;99.90;;;;;;4976329;28;20817;-65
2022/06/27 05:57:52;;;;;;;2.60;2.30;;;20.20;99.90;;;;;;4976421;28;20461;-64
2022/06/27 06:00:19;;;;;;;2.43;2.23;;;20.20;99.90;;;;;;4975499;28;20550;-64
2022/06/27 06:02:48;;;;;;;2.80;2.17;;;20.20;99.90;;;;;;4976378;28;20453;-64
2022/06/27 06:05:14;;;;;;;2.60;2.10;;;20.30;99.90;;;;;;4976080;28;20459;-64
2022/06/27 06:07:42;;;;;;;2.30;1.70;;;20.30;99.90;;;;;;4980062;28;20454;-64
2022/06/27 06:10:10;;;;;;;1.70;1.60;;;20.40;99.90;;;;;;4987549;28;20462;-64
2022/06/27 06:12:37;;;;;;;2.40;1.77;;;20.50;99.90;;;;;;4976363;28;20482;-64
2022/06/27 06:15:04;;;;;;;2.20;2.10;;;20.60;99.90;;;;;;4975540;28;20880;-64
2022/06/27 06:17:33;;;;;;;1.90;1.50;;;20.60;99.90;;;;;;4975873;28;20510;-65
2022/06/27 06:20:01;;;;;;;3.50;1.53;;;20.50;99.90;;;;;;4975628;28;20461;-64
2022/06/27 06:22:28;;;;;;;3.50;2.20;;;20.40;99.90;;;;;;4975373;28;20478;-64
2022/06/27 06:24:55;;;;;;;2.67;1.80;;;20.40;99.90;;;;;;4975323;28;20942;-64
2022/06/27 06:27:21;;;;;;;1.63;1.53;;;20.30;99.90;;;;;;4975519;28;20459;-64
2022/06/27 06:29:48;;;;;;;2.70;1.70;;;20.30;99.90;;;;;;4975473;28;20487;-64
2022/06/27 06:32:16;;;;;;;2.40;1.90;;;20.20;99.90;;;;;;4975284;28;20510;-64
2022/06/27 06:34:43;;;;;;;6.30;2.13;;;20.10;99.90;;;;;;4975462;28;20481;-64
2022/06/27 06:37:12;;;;;;;2.63;1.93;;;20.10;99.90;;;;;;4975398;28;20515;-66
2022/06/27 06:39:39;;;;;;;2.17;2.07;;;20.10;99.90;;;;;;4975471;28;20459;-66
2022/06/27 06:42:07;;;;;;;2.87;2.47;;;20.30;99.90;;;;;;4975338;28;20466;-65
2022/06/27 06:44:34;;;;;;;1.97;1.87;;;20.40;99.90;;;;;;4975630;28;20454;-66
2022/06/27 06:47:01;;;;;;;2.53;2.33;;;20.40;99.90;;;;;;4975450;28;20968;-66
2022/06/27 06:49:28;;;;;;;1.90;1.63;;;20.60;99.90;;;;;;4975233;28;20459;-64
2022/06/27 06:51:54;;;;;;;2.07;1.87;;;20.70;99.90;;;;;;4975073;28;20981;-64
2022/06/27 06:54:26;;;;;;;1.90;1.80;;;20.80;99.90;;;;;;4975348;28;20458;-65
2022/06/27 06:56:53;;;;;;;2.10;1.90;;;20.90;99.90;;;;;;4975503;28;20494;-64
2022/06/27 06:59:20;;;;;;;1.43;1.43;;;21.00;99.90;;;;;;4975078;28;20461;-64
2022/06/27 07:01:47;;;;;;;2.10;2.00;;;21.10;99.90;;;;;;4975071;28;20494;-63
2022/06/27 07:04:15;;;;;;;2.10;1.90;;;21.20;99.90;;;;;;4975111;28;20586;-64
2022/06/27 07:06:42;;;;;;;2.10;2.00;;;21.10;99.90;;;;;;4975279;28;20459;-64
2022/06/27 07:09:08;;;;;;;3.63;2.40;;;21.10;99.90;;;;;;4975197;28;20857;-65
2022/06/27 07:11:38;;;;;;;3.00;2.70;;;21.10;99.90;;;;;;4974205;28;20475;-63
2022/06/27 07:14:05;;;;;;;3.17;2.97;;;21.00;99.90;;;;;;4974865;28;20494;-65
2022/06/27 07:16:32;;;;;;;2.30;2.20;;;21.00;99.90;;;;;;4974880;28;20479;-64
2022/06/27 07:19:00;;;;;;;2.70;2.03;;;21.10;99.90;;;;;;4974792;28;20483;-64
2022/06/27 07:21:30;;;;;;;3.20;3.00;;;21.10;99.90;;;;;;4974860;28;20497;-64
2022/06/27 07:23:58;;;;;;;3.20;3.00;;;21.10;99.90;;;;;;4974877;28;20879;-65
2022/06/27 07:26:27;;;;;;;3.40;3.30;;;21.20;99.90;;;;;;4975048;28;20545;-65
2022/06/27 07:28:55;;;;;;;3.30;3.03;;;21.30;99.90;;;;;;4974982;28;20462;-64
2022/06/27 07:31:22;;;;;;;2.97;2.87;;;21.30;99.90;;;;;;4974375;28;20986;-64
2022/06/27 07:33:53;;;;;;;2.83;2.63;;;21.20;99.90;;;;;;4974780;28;20454;-64
2022/06/27 07:36:25;;;;;;;2.87;2.67;;;21.00;99.90;;;;;;4974289;28;20463;-64
2022/06/27 07:38:53;;;;;;;2.70;2.50;;;20.90;99.90;;;;;;4974674;28;20435;-65
2022/06/27 07:41:21;;;;;;;2.97;2.70;;;20.90;99.90;;;;;;4974169;28;21012;-64
2022/06/27 07:43:48;;;;;;;2.70;2.60;;;20.90;99.90;;;;;;4975667;28;20486;-64
2022/06/27 07:46:17;;;;;;;3.10;2.90;;;20.90;99.90;;;;;;4974912;28;20462;-64
2022/06/27 07:48:45;;;;;;;3.23;3.03;;;20.90;99.90;;;;;;4974617;28;20455;-65
2022/06/27 07:51:16;;;;;;;2.77;2.67;;;20.90;99.90;;;;;;4975074;28;20474;-64
2022/06/27 07:53:44;;;;;;;2.63;2.53;;;21.00;99.90;;;;;;4974968;28;20479;-64
2022/06/27 07:56:11;;;;;;;3.20;2.90;;;21.10;99.90;;;;;;4975000;28;20870;-64
2022/06/27 07:58:38;;;;;;;2.67;2.57;;;21.10;99.90;;;;;;4974998;28;20465;-64
2022/06/27 08:01:07;;;;;;;2.97;2.67;;;21.20;99.90;;;;;;4974510;28;20908;-64
2022/06/27 08:03:40;;;;;;;2.83;2.67;;;21.10;99.90;;;;;;4974948;28;20774;-65
2022/06/27 08:06:09;;;;;;;3.17;2.40;;;21.00;99.90;;;;;;4974198;28;20486;-65
2022/06/27 08:08:37;;;;;;;3.50;3.37;;;21.10;99.90;;;;;;4974440;28;20464;-65
2022/06/27 08:11:06;;;;;;;2.70;2.60;;;21.00;99.90;;;;;;4974363;28;20479;-64
2022/06/27 08:13:35;;;;;;;3.07;2.70;;;21.00;99.90;;;;;;4974444;28;20458;-64
2022/06/27 08:16:02;;;;;;;2.67;2.57;;;21.00;99.90;;;;;;4974747;28;20556;-64
2022/06/27 08:18:31;;;;;;;2.77;2.60;;;21.00;99.90;;;;;;4974930;28;20493;-66
2022/06/27 08:21:00;;;;;;;2.73;2.63;;;21.10;99.90;;;;;;4974315;28;20516;-65
2022/06/27 08:23:27;;;;;;;2.60;2.50;;;21.10;99.90;;;;;;4976666;28;20454;-65
2022/06/27 08:25:54;;;;;;;2.63;2.43;;;21.20;99.90;;;;;;4977466;28;20946;-65
2022/06/27 08:28:22;;;;;;;2.70;2.60;;;21.20;99.90;;;;;;4977763;28;20454;-65
2022/06/27 08:30:50;;;;;;;2.67;2.57;;;21.30;99.90;;;;;;4977762;28;20482;-65
2022/06/27 08:33:18;;;;;;;3.03;2.57;;;21.40;99.90;;;;;;4977379;28;20880;-65
2022/06/27 08:35:47;;;;;;;2.57;2.47;;;21.50;99.90;;;;;;4977884;28;20458;-65
2022/06/27 08:38:16;;;;;;;2.93;2.77;;;21.70;99.90;;;;;;4977605;28;20442;-64
2022/06/27 08:40:44;;;;;;;2.37;2.30;;;21.70;99.90;;;;;;4977605;28;20565;-64
2022/06/27 08:43:12;;;;;;;2.90;2.33;;;21.80;99.90;;;;;;4977601;28;20483;-64
2022/06/27 08:45:39;;;;;;;2.50;2.40;;;21.80;99.90;;;;;;4977536;28;20478;-65
2022/06/27 08:48:08;;;;;;;2.50;2.40;;;21.80;99.90;;;;;;4977147;28;20943;-65
2022/06/27 08:50:36;;;;;;;2.80;2.60;;;21.80;99.90;;;;;;4977105;28;20838;-65
2022/06/27 08:53:03;;;;;;;3.20;3.10;;;21.90;99.90;;;;;;4977295;28;20458;-65
2022/06/27 08:55:34;;;;;;;3.17;2.97;;;21.90;99.90;;;;;;4977487;28;20462;-65
2022/06/27 08:58:04;;;;;;;2.63;2.43;;;21.90;99.90;;;;;;4977336;28;20467;-65
2022/06/27 09:00:34;;;;;;;2.67;2.47;;;21.80;99.90;;;;;;4977025;28;20970;-64
2022/06/27 09:03:00;;;;;;;2.93;2.73;;;21.70;99.90;;;;;;4977136;28;20493;-65
2022/06/27 09:05:30;;;;;;;2.83;2.73;;;21.80;99.90;;;;;;4977309;28;20484;-66
2022/06/27 09:08:01;;;;;;;3.47;2.93;;;21.80;99.90;;;;;;4977303;28;20450;-66
2022/06/27 09:10:32;;;;;;;4.40;3.10;;;21.90;99.90;;;;;;4976885;28;20439;-65
2022/06/27 09:13:01;;;;;;;2.97;2.77;;;21.90;99.90;;;;;;4977060;28;20903;-66
2022/06/27 09:15:44;;;;;;;3.27;3.07;;;22.10;99.90;;;;;;4976814;28;20996;-65
2022/06/27 09:18:11;;;;;;;3.60;2.60;;;22.20;99.90;;;;;;4976715;28;20470;-65
2022/06/27 09:20:47;;;;;;;2.90;2.80;;;22.20;99.90;;;;;;4976942;28;21044;-65
2022/06/27 09:23:41;;;;;;;2.67;2.50;;;22.30;99.90;;;;;;4976882;28;20462;-65
2022/06/27 09:26:13;;;;;;;2.50;2.30;;;22.30;99.90;;;;;;4990137;28;20467;-65
2022/06/27 09:28:42;;;;;;;2.03;1.93;;;22.30;99.90;;;;;;4983650;28;20828;-65
2022/06/27 09:31:12;;;;;;;2.27;2.17;;;22.20;99.90;;;;;;4977104;28;20558;-65
2022/06/27 09:33:41;;;;;;;2.70;2.50;;;22.10;99.90;;;;;;4976430;28;20549;-65
2022/06/27 09:36:13;;;;;;;2.50;2.40;;;22.10;99.90;;;;;;4976558;28;20459;-65
2022/06/27 09:38:41;;;;;;;3.03;2.83;;;22.00;99.90;;;;;;4976293;28;20902;-65
2022/06/27 09:41:12;;;;;;;3.57;3.27;;;22.00;99.90;;;;;;4976466;28;20475;-64
2022/06/27 09:43:44;;;;;;;3.07;2.93;;;22.00;99.90;;;;;;4976430;28;20438;-65
2022/06/27 09:46:13;;;;;;;2.60;2.50;;;22.10;99.90;;;;;;4976154;28;20918;-65
2022/06/27 09:48:43;;;;;;;2.80;2.70;;;22.10;99.90;;;;;;4976501;28;20455;-65
2022/06/27 09:51:12;;;;;;;2.83;2.73;;;22.20;99.90;;;;;;4976535;28;20474;-64
2022/06/27 09:53:40;;;;;;;2.90;2.70;;;22.20;99.90;;;;;;4976506;28;20459;-65
2022/06/27 09:56:09;;;;;;;4.27;2.90;;;22.20;99.90;;;;;;4976056;28;20454;-66
2022/06/27 09:58:38;;;;;;;3.57;3.20;;;22.40;99.90;;;;;;4975959;28;20490;-65
2022/06/27 10:01:05;;;;;;;3.83;3.63;;;22.60;99.90;;;;;;4975535;28;20942;-65
2022/06/27 10:03:33;;;;;;;3.13;3.00;;;23.00;99.90;;;;;;4976113;28;20511;-66
2022/06/27 10:06:01;;;;;;;6.27;2.83;;;23.50;99.90;;;;;;4975957;28;20598;-65
2022/06/27 10:08:31;;;;;;;3.40;3.10;;;24.10;99.90;;;;;;4976051;28;20446;-66
2022/06/27 10:11:10;;;;;;;3.03;2.93;;;24.70;99.90;;;;;;4975653;28;20978;-65
2022/06/27 10:13:42;;;;;;;3.10;2.90;;;25.50;99.90;;;;;;4976349;28;20503;-65
2022/06/27 10:16:12;;;;;;;3.33;3.23;;;26.20;99.90;;;;;;4975976;28;20443;-64
2022/06/27 10:19:00;;;;;;;3.47;3.17;;;26.70;99.90;;;;;;4975718;28;20482;-65
2022/06/27 10:21:29;;;;;;;2.70;2.60;;;26.70;99.90;;;;;;4975844;28;20482;-65
2022/06/27 10:24:40;;;;;;;2.57;2.40;;;26.70;99.90;;;;;;4975878;28;20462;-64
2022/06/27 10:27:08;;;;;;;2.53;2.40;;;26.70;99.90;;;;;;4975747;28;20442;-64
2022/06/27 10:29:45;;;;;;;2.80;2.60;;;26.60;99.90;;;;;;4976260;28;20450;-65
2022/06/27 10:32:44;;;;;;;2.87;2.40;;;26.50;99.90;;;;;;4977136;28;20478;-65
2022/06/27 10:35:17;;;;;;;2.50;2.40;;;26.20;99.90;;;;;;4977826;28;20482;-64
2022/06/27 10:37:46;;;;;;;2.37;2.30;;;25.80;99.90;;;;;;4977051;28;20490;-65
2022/06/27 10:40:55;;;;;;;2.67;2.57;;;25.70;99.90;;;;;;4976721;28;20462;-63
2022/06/27 10:43:56;;;;;;;2.90;2.70;;;25.30;99.90;;;;;;4976255;28;20442;-65
2022/06/27 10:46:45;;;;;;;2.50;2.40;;;24.90;99.90;;;;;;4975741;28;20559;-65
2022/06/27 10:49:21;;;;;;;2.67;2.57;;;24.50;99.90;;;;;;4970688;28;20485;-65
2022/06/27 10:51:48;;;;;;;3.63;2.40;;;24.30;99.90;;;;;;4974860;28;21104;-65
2022/06/27 10:54:16;;;;;;;2.73;2.37;;;24.20;99.90;;;;;;4975205;28;20454;-65
2022/06/27 10:56:45;;;;;;;1.93;1.83;;;24.60;99.90;;;;;;4975122;28;20454;-64
2022/06/27 11:00:04;;;;;;;2.37;2.27;;;25.00;99.90;;;;;;4975240;28;20463;-66
2022/06/27 11:02:33;;;;;;;2.30;2.20;;;25.50;99.90;;;;;;4915330;29;20910;-65
2022/06/27 11:05:01;;;;;;;2.20;1.90;;;25.60;99.90;;;;;;4970918;28;20482;-65
2022/06/27 11:07:29;;;;;;;2.47;2.27;;;25.80;99.90;;;;;;4975103;28;20541;-65
2022/06/27 11:09:56;;;;;;;2.30;2.10;;;25.80;99.90;;;;;;4975087;28;20451;-65
2022/06/27 11:12:29;;;;;;;1.80;1.80;;;25.90;99.90;;;;;;4975052;28;20569;-65
2022/06/27 11:14:58;;;;;;;6.83;2.80;;;25.90;99.90;;;;;;4974967;28;20910;-66
2022/06/27 11:17:35;;;;;;;1.80;1.80;;;26.20;99.90;;;;;;4974876;28;20514;-66
2022/06/27 11:20:18;;;;;;;2.20;1.53;;;26.60;99.90;;;;;;4975115;28;20442;-65
2022/06/27 11:22:48;;;;;;;1.90;1.80;;;27.00;99.90;;;;;;4974991;28;20448;-66
2022/06/27 11:25:15;;;;;;;2.30;2.20;;;27.30;99.90;;;;;;4974990;28;20458;-66
2022/06/27 11:31:57;;;;;;;2.30;2.20;;;27.30;99.90;;;;;;4974832;28;20462;-64
2022/06/27 11:33:36;;;;;;;2.20;2.00;;;26.80;99.90;;;;;;4974945;28;20803;-66
2022/06/27 11:36:03;;;;;;;2.67;2.10;;;26.70;99.90;;;;;;4974699;28;20462;-66
2022/06/27 11:38:32;;;;;;;3.03;2.30;;;26.50;99.90;;;;;;4974780;28;20509;-65
2022/06/27 11:41:01;;;;;;;2.60;2.40;;;26.30;99.90;;;;;;4974435;28;20981;-65
2022/06/27 11:44:00;;;;;;;2.83;2.50;;;26.20;99.90;;;;;;4974976;28;20509;-65
2022/06/27 11:46:30;;;;;;;3.40;2.10;;;26.10;99.90;;;;;;4974242;28;20458;-66
2022/06/27 11:49:01;;;;;;;2.50;2.40;;;25.80;99.90;;;;;;4974835;28;20439;-66
2022/06/27 11:51:30;;;;;;;2.80;2.60;;;25.60;99.90;;;;;;4974401;28;20906;-65
2022/06/27 11:54:01;;;;;;;2.83;2.67;;;25.30;99.90;;;;;;4974695;28;20493;-65
2022/06/27 11:56:29;;;;;;;3.47;2.60;;;25.10;99.90;;;;;;4974710;28;20526;-64
2022/06/27 11:58:57;;;;;;;3.27;2.70;;;25.10;99.90;;;;;;4977738;28;20482;-65
2022/06/27 12:01:24;;;;;;;2.30;2.20;;;25.10;99.90;;;;;;4977940;28;21017;-65
2022/06/27 12:04:14;;;;;;;3.30;3.10;;;25.10;99.90;;;;;;4978315;28;20459;-65
2022/06/27 12:06:42;;;;;;;2.70;2.60;;;25.00;99.90;;;;;;4978020;28;20918;-65
2022/06/27 12:09:09;;;;;;;2.73;2.63;;;25.00;99.90;;;;;;4977701;28;20862;-65
2022/06/27 12:11:35;;;;;;;2.70;2.53;;;25.00;99.90;;;;;;4978013;28;20486;-65
2022/06/27 12:14:03;;;;;;;3.60;2.80;;;24.90;99.90;;;;;;4977768;28;20458;-65
2022/06/27 12:16:44;;;;;;;3.20;3.00;;;24.70;99.90;;;;;;4978014;28;20464;-65
2022/06/27 12:19:13;;;;;;;3.27;3.17;;;24.60;99.90;;;;;;4977997;28;20470;-65
2022/06/27 12:21:39;;;;;;;3.00;2.80;;;24.40;99.90;;;;;;4977943;28;20573;-64
2022/06/27 12:24:07;;;;;;;3.23;3.03;;;24.30;99.90;;;;;;4977793;28;20458;-64
2022/06/27 12:26:35;;;;;;;2.80;2.70;;;24.20;99.90;;;;;;4977947;28;20450;-65
2022/06/27 12:29:02;;;;;;;2.87;2.73;;;24.10;99.90;;;;;;4977873;28;20450;-65
2022/06/27 12:31:29;;;;;;;2.97;2.77;;;24.00;99.90;;;;;;4977824;28;20825;-64
2022/06/27 12:33:56;;;;;;;3.20;2.93;;;24.00;99.90;;;;;;4977794;28;20872;-65
2022/06/27 12:36:24;;;;;;;2.90;2.70;;;23.90;99.90;;;;;;4977591;28;20466;-65
2022/06/27 12:38:50;;;;;;;3.40;3.10;;;24.00;99.90;;;;;;4977808;28;20494;-65
2022/06/27 12:41:17;;;;;;;3.37;3.07;;;24.10;99.90;;;;;;4977344;28;20982;-65
2022/06/27 12:43:46;;;;;;;3.63;3.43;;;24.10;99.90;;;;;;4977519;28;20451;-65
2022/06/27 12:46:15;;;;;;;2.70;2.50;;;24.10;99.90;;;;;;4977602;28;20458;-65
2022/06/27 12:48:42;;;;;;;2.67;2.47;;;24.00;99.90;;;;;;4977557;28;20477;-65
2022/06/27 12:51:10;;;;;;;2.80;2.67;;;23.90;99.90;;;;;;4977754;28;20478;-65
2022/06/27 12:53:38;;;;;;;2.60;2.40;;;23.90;99.90;;;;;;4977370;28;20461;-65
2022/06/27 12:56:06;;;;;;;2.83;2.50;;;23.80;99.90;;;;;;4977489;28;20828;-65
2022/06/27 12:58:33;;;;;;;2.47;2.23;;;23.70;99.90;;;;;;4977169;28;20486;-65
2022/06/27 13:01:01;;;;;;;2.00;1.90;;;23.70;99.90;;;;;;4977396;28;20986;-64
2022/06/27 13:03:27;;;;;;;2.27;2.20;;;23.70;99.90;;;;;;4977238;28;20465;-64
2022/06/27 13:05:54;;;;;;;2.47;2.37;;;23.60;99.90;;;;;;4977160;28;20462;-65
2022/06/27 13:08:21;;;;;;;3.10;2.83;;;23.60;99.90;;;;;;4976731;28;20457;-65
2022/06/27 13:10:49;;;;;;;5.10;1.93;;;23.50;99.90;;;;;;4976572;28;20525;-65
2022/06/27 13:13:16;;;;;;;2.00;1.90;;;23.50;99.90;;;;;;4977066;28;20484;-65
2022/06/27 13:15:43;;;;;;;2.63;2.53;;;23.40;99.90;;;;;;4976702;28;20459;-65
2022/06/27 13:18:10;;;;;;;2.07;1.90;;;23.40;99.90;;;;;;4976865;28;20478;-65
2022/06/27 13:20:37;;;;;;;3.30;1.60;;;23.30;99.90;;;;;;4976781;28;20479;-65
2022/06/27 13:23:04;;;;;;;2.00;1.47;;;23.20;99.90;;;;;;4977184;28;20871;-65
2022/06/27 13:25:31;;;;;;;1.90;1.80;;;23.10;99.90;;;;;;4977049;28;20454;-65
2022/06/27 13:28:00;;;;;;;1.83;1.83;;;23.10;99.90;;;;;;4977738;28;20458;-64
2022/06/27 13:30:27;;;;;;;1.63;1.60;;;23.10;99.90;;;;;;4976892;28;20552;-64
2022/06/27 13:32:53;;;;;;;2.33;2.23;;;23.00;99.90;;;;;;4976849;28;20872;-65
2022/06/27 13:35:20;;;;;;;2.30;2.20;;;23.00;99.90;;;;;;4976617;28;20458;-65
2022/06/27 13:37:47;;;;;;;2.03;1.90;;;22.90;99.90;;;;;;4976568;28;20471;-66
2022/06/27 13:40:14;;;;;;;2.20;2.00;;;23.00;99.90;;;;;;4976198;28;20461;-64
2022/06/27 13:42:41;;;;;;;2.10;2.00;;;22.90;99.90;;;;;;4976470;28;20461;-65
2022/06/27 13:45:10;;;;;;;4.10;2.30;;;23.00;99.90;;;;;;4976425;28;20470;-66
2022/06/27 13:47:37;;;;;;;2.17;2.07;;;23.10;99.90;;;;;;4976189;28;20877;-65
2022/06/27 13:50:05;;;;;;;2.40;2.20;;;23.30;99.90;;;;;;4976317;28;20537;-64
2022/06/27 13:52:34;;;;;;;2.57;2.37;;;23.40;99.90;;;;;;4976560;28;20482;-66
2022/06/27 13:55:01;;;;;;;2.73;2.53;;;23.40;99.90;;;;;;4976898;28;20454;-64
2022/06/27 13:57:28;;;;;;;2.50;2.30;;;23.40;99.90;;;;;;4976111;28;20862;-65
2022/06/27 13:59:55;;;;;;;2.13;2.10;;;23.50;99.90;;;;;;4976251;28;20450;-65
2022/06/27 14:02:23;;;;;;;2.53;2.43;;;23.60;99.90;;;;;;4975745;28;20489;-66
2022/06/27 14:04:50;;;;;;;2.03;2.03;;;23.60;99.90;;;;;;4976722;28;20451;-65
2022/06/27 14:10:01;;;;;;;2.80;2.00;;;23.70;99.90;;;;;;4975847;28;20411;-66
2022/06/27 14:12:28;;;;;;;2.30;2.10;;;23.70;99.90;;;;;;4975899;28;20479;-65
2022/06/27 14:14:54;;;;;;;2.53;2.20;;;23.60;99.90;;;;;;4976461;28;20458;-64
2022/06/27 14:17:22;;;;;;;2.60;2.40;;;23.50;99.90;;;;;;4976235;28;20459;-65
2022/06/27 14:19:50;;;;;;;2.40;2.20;;;23.50;99.90;;;;;;4975499;28;20981;-65
2022/06/27 14:22:16;;;;;;;3.13;2.57;;;23.50;99.90;;;;;;4976557;28;20482;-65
2022/06/27 14:24:43;;;;;;;3.03;2.60;;;23.40;99.90;;;;;;4976539;28;20459;-65
2022/06/27 14:27:10;;;;;;;2.30;2.00;;;23.30;99.90;;;;;;4976736;28;20458;-65
2022/06/27 14:29:37;;;;;;;2.87;2.77;;;23.20;99.90;;;;;;4975960;28;20938;-66
2022/06/27 14:32:04;;;;;;;2.40;2.30;;;23.20;99.90;;;;;;4975676;28;20486;-66
2022/06/27 14:34:31;;;;;;;4.10;2.87;;;23.20;99.90;;;;;;4975518;28;20446;-65
2022/06/27 14:36:59;;;;;;;3.20;3.00;;;23.20;99.90;;;;;;4975596;28;20486;-65
2022/06/27 14:39:26;;;;;;;3.00;2.80;;;23.10;99.90;;;;;;4975972;28;20474;-65
2022/06/27 14:41:53;;;;;;;3.40;3.23;;;23.10;99.90;;;;;;4975358;28;20482;-65
2022/06/27 14:44:20;;;;;;;3.27;3.07;;;23.00;99.90;;;;;;4975509;28;20459;-65
2022/06/27 14:46:47;;;;;;;2.70;2.60;;;22.90;99.90;;;;;;4975364;28;20509;-65
2022/06/27 14:49:14;;;;;;;3.30;3.10;;;22.80;99.90;;;;;;4975085;28;20455;-65
2022/06/27 14:51:40;;;;;;;2.80;2.60;;;22.80;99.90;;;;;;4975236;28;20525;-64
2022/06/27 14:54:10;;;;;;;3.10;2.90;;;22.70;99.90;;;;;;4974845;28;21013;-65
2022/06/27 14:56:37;;;;;;;3.20;2.90;;;22.80;99.90;;;;;;4974890;28;21029;-65
2022/06/27 14:59:04;;;;;;;3.07;2.97;;;22.80;99.90;;;;;;4974845;28;20510;-65
2022/06/27 15:01:31;;;;;;;2.93;2.73;;;22.90;99.90;;;;;;4974733;28;20486;-63
2022/06/27 15:03:57;;;;;;;5.53;3.40;;;23.00;99.90;;;;;;4975066;28;20514;-65
2022/06/27 15:06:24;;;;;;;3.33;3.03;;;23.00;99.90;;;;;;4975148;28;20459;-65
2022/06/27 15:08:51;;;;;;;3.20;3.00;;;23.00;99.90;;;;;;4975222;28;20458;-65
2022/06/27 15:11:37;;;;;;;3.63;3.43;;;23.00;99.90;;;;;;4975203;28;20481;-64
2022/06/27 15:14:05;;;;;;;3.17;3.07;;;23.00;99.90;;;;;;4974858;28;20447;-65
2022/06/27 15:16:35;;;;;;;3.87;3.57;;;22.90;99.90;;;;;;4975046;28;20459;-65
2022/06/27 15:19:02;;;;;;;5.27;4.33;;;22.80;99.90;;;;;;4974847;28;20475;-65
2022/06/27 15:21:28;;;;;;;4.40;4.10;;;22.90;99.90;;;;;;4975043;28;20482;-65
2022/06/27 15:23:55;;;;;;;4.10;3.80;;;22.90;99.90;;;;;;4975038;28;20459;-65
2022/06/27 15:26:23;;;;;;;4.93;3.90;;;23.00;99.90;;;;;;4974834;28;20473;-64
2022/06/27 15:28:51;;;;;;;4.17;3.97;;;22.90;99.90;;;;;;4975024;28;20517;-64
2022/06/27 15:31:17;;;;;;;3.60;3.40;;;22.80;99.90;;;;;;4974780;28;20533;-64
2022/06/27 15:33:44;;;;;;;3.73;3.53;;;22.80;99.90;;;;;;4978068;28;20458;-64
2022/06/27 15:36:11;;;;;;;3.50;3.30;;;22.70;99.90;;;;;;4978671;28;20941;-65
2022/06/27 15:38:38;;;;;;;3.87;3.67;;;22.70;99.90;;;;;;4978577;28;20847;-64
2022/06/27 15:41:05;;;;;;;3.67;3.47;;;22.60;99.90;;;;;;4978780;28;20482;-65
2022/06/27 15:43:33;;;;;;;3.30;3.10;;;22.60;99.90;;;;;;4978878;28;20459;-65
2022/06/27 15:46:00;;;;;;;4.80;3.40;;;22.70;99.90;;;;;;4978840;28;20477;-65
2022/06/27 15:48:27;;;;;;;3.17;3.03;;;22.70;99.90;;;;;;4978802;28;20450;-65
2022/06/27 15:50:53;;;;;;;3.47;3.23;;;22.80;99.90;;;;;;4978540;28;20509;-64
2022/06/27 15:53:20;;;;;;;3.23;3.00;;;22.90;99.90;;;;;;4978713;28;20451;-65
2022/06/27 15:55:47;;;;;;;3.03;2.70;;;23.00;99.90;;;;;;4978596;28;20461;-64
2022/06/27 15:58:14;;;;;;;4.10;2.93;;;23.00;99.90;;;;;;4978518;28;20458;-65
2022/06/27 16:00:42;;;;;;;3.10;2.90;;;23.10;99.90;;;;;;4978459;28;20486;-64
2022/06/27 16:03:09;;;;;;;2.53;2.43;;;23.00;99.90;;;;;;4978504;28;20442;-65
2022/06/27 16:05:36;;;;;;;2.97;2.70;;;22.90;99.90;;;;;;4978241;28;20465;-65
2022/06/27 16:08:02;;;;;;;2.70;2.60;;;22.90;99.90;;;;;;4978120;28;20454;-65
2022/06/27 16:10:29;;;;;;;3.40;3.10;;;22.80;99.90;;;;;;4977817;28;20964;-64
2022/06/27 16:12:56;;;;;;;2.87;2.77;;;22.70;99.90;;;;;;4978201;28;20466;-65
2022/06/27 16:15:23;;;;;;;3.10;3.00;;;22.60;99.90;;;;;;4978126;28;20459;-66
2022/06/27 16:17:51;;;;;;;3.00;2.80;;;22.50;99.90;;;;;;4978014;28;20862;-66
2022/06/27 16:20:18;;;;;;;3.40;3.10;;;22.40;99.90;;;;;;4977891;28;20486;-65
2022/06/27 16:22:44;;;;;;;3.07;2.97;;;22.50;99.90;;;;;;4978018;28;20458;-65
2022/06/27 16:25:13;;;;;;;3.70;3.50;;;22.40;99.90;;;;;;4977666;28;20955;-65
2022/06/27 16:27:39;;;;;;;4.03;3.80;;;22.40;99.90;;;;;;4977948;28;20861;-66
2022/06/27 16:30:08;;;;;;;3.50;3.30;;;22.30;99.90;;;;;;4977826;28;20447;-66
2022/06/27 16:32:33;;;;;;;3.50;3.30;;;22.40;99.90;;;;;;4978164;28;20479;-66
2022/06/27 16:35:01;;;;;;;3.50;3.30;;;22.50;99.90;;;;;;4977510;28;20498;-65
2022/06/27 16:37:28;;;;;;;3.63;3.43;;;22.60;99.90;;;;;;4977451;28;20690;-65
2022/06/27 16:39:55;;;;;;;3.63;3.43;;;22.60;99.90;;;;;;4977526;28;20884;-66
2022/06/27 16:45:07;;;;;;;3.53;3.23;;;22.70;99.90;;;;;;4977499;28;20842;-65
2022/06/27 16:47:34;;;;;;;3.70;3.50;;;22.60;99.90;;;;;;4977235;28;20954;-66
2022/06/27 16:50:02;;;;;;;3.13;2.93;;;22.60;99.90;;;;;;4977534;28;20455;-65
2022/06/27 16:52:28;;;;;;;3.70;3.40;;;22.60;99.90;;;;;;4977408;28;20482;-66
2022/06/27 16:54:55;;;;;;;3.43;3.13;;;22.50;99.90;;;;;;4977448;28;20509;-65
2022/06/27 16:57:22;;;;;;;3.13;2.97;;;22.40;99.90;;;;;;4977293;28;20455;-65
2022/06/27 16:59:49;;;;;;;3.50;3.20;;;22.30;99.90;;;;;;4976739;28;20486;-65
2022/06/27 17:02:16;;;;;;;4.00;3.67;;;22.20;99.90;;;;;;4976421;28;20490;-65
2022/06/27 17:04:42;;;;;;;3.77;3.57;;;22.20;99.90;;;;;;4976978;28;20458;-65
2022/06/27 17:07:10;;;;;;;3.77;3.57;;;22.10;99.90;;;;;;4977050;28;20455;-65